createdAt,value
2019-03-29T00:00:53.165Z,1028.06
2019-03-29T00:01:53.153Z,1028.13
2019-03-29T00:02:53.142Z,1028.07
2019-03-29T00:03:53.165Z,1028.07
2019-03-29T00:04:53.188Z,1028.09
2019-03-29T00:05:53.112Z,1028.04
2019-03-29T00:06:53.097Z,1028.06
2019-03-29T00:07:53.085Z,1027.98
2019-03-29T00:08:53.084Z,1027.96
2019-03-29T00:09:53.084Z,1028.03
2019-03-29T00:10:53.062Z,1027.95
2019-03-29T00:11:53.047Z,1027.99
2019-03-29T00:12:53.042Z,1027.95
2019-03-29T00:13:53.068Z,1027.95
2019-03-29T00:14:53.016Z,1028.00
2019-03-29T00:15:53.002Z,1027.91
2019-03-29T00:16:52.989Z,1027.99
2019-03-29T00:17:52.977Z,1027.98
2019-03-29T00:18:52.987Z,1027.99
2019-03-29T00:19:54.125Z,1027.96
2019-03-29T00:20:52.949Z,1027.93
2019-03-29T00:21:52.933Z,1027.96
2019-03-29T00:22:52.923Z,1027.94
2019-03-29T00:24:05.929Z,1027.91
2019-03-29T00:24:53.931Z,1027.90
2019-03-29T00:25:52.894Z,1027.94
2019-03-29T00:26:53.223Z,1027.91
2019-03-29T00:27:52.866Z,1027.95
2019-03-29T00:28:52.856Z,1027.89
2019-03-29T00:29:52.851Z,1027.91
2019-03-29T00:30:52.856Z,1027.85
2019-03-29T00:31:52.827Z,1027.90
2019-03-29T00:32:52.821Z,1027.93
2019-03-29T00:33:52.800Z,1027.91
2019-03-29T00:34:52.797Z,1027.93
2019-03-29T00:35:52.806Z,1027.92
2019-03-29T00:36:52.782Z,1027.92
2019-03-29T00:37:54.951Z,1027.94
2019-03-29T00:38:52.754Z,1027.92
2019-03-29T00:39:52.736Z,1027.90
2019-03-29T00:40:52.730Z,1027.87
2019-03-29T00:41:52.727Z,1027.92
2019-03-29T00:42:52.703Z,1027.91
2019-03-29T00:43:52.711Z,1027.90
2019-03-29T00:44:52.904Z,1027.89
2019-03-29T00:45:52.675Z,1027.87
2019-03-29T00:46:52.670Z,1027.86
2019-03-29T00:47:52.656Z,1027.86
2019-03-29T00:48:52.645Z,1027.81
2019-03-29T00:49:52.649Z,1027.82
2019-03-29T00:50:52.615Z,1027.77
2019-03-29T00:51:52.611Z,1027.76
2019-03-29T00:52:52.614Z,1027.73
2019-03-29T00:53:52.595Z,1027.82
2019-03-29T00:54:52.576Z,1027.78
2019-03-29T00:55:52.560Z,1027.78
2019-03-29T00:56:52.549Z,1027.75
2019-03-29T00:57:52.570Z,1027.70
2019-03-29T00:58:52.543Z,1027.74
2019-03-29T00:59:52.521Z,1027.74
2019-03-29T01:00:52.512Z,1027.73
2019-03-29T01:01:53.095Z,1027.71
2019-03-29T01:02:52.508Z,1027.67
2019-03-29T01:03:52.479Z,1027.68
2019-03-29T01:04:52.464Z,1027.60
2019-03-29T01:05:52.456Z,1027.65
2019-03-29T01:06:52.444Z,1027.59
2019-03-29T01:08:06.710Z,1027.58
2019-03-29T01:08:53.484Z,1027.61
2019-03-29T01:09:52.410Z,1027.63
2019-03-29T01:10:52.405Z,1027.59
2019-03-29T01:11:52.390Z,1027.65
2019-03-29T01:12:52.381Z,1027.62
2019-03-29T01:13:52.368Z,1027.59
2019-03-29T01:14:52.368Z,1027.60
2019-03-29T01:15:52.347Z,1027.53
2019-03-29T01:16:52.333Z,1027.63
2019-03-29T01:17:52.325Z,1027.57
2019-03-29T01:18:52.313Z,1027.56
2019-03-29T01:19:52.313Z,1027.57
2019-03-29T01:20:52.286Z,1027.59
2019-03-29T01:21:52.274Z,1027.54
2019-03-29T01:22:52.263Z,1027.48
2019-03-29T01:23:52.257Z,1027.52
2019-03-29T01:24:52.256Z,1027.52
2019-03-29T01:25:52.252Z,1027.50
2019-03-29T01:26:52.406Z,1027.50
2019-03-29T01:27:52.222Z,1027.56
2019-03-29T01:28:52.204Z,1027.60
2019-03-29T01:29:52.194Z,1027.54
2019-03-29T01:30:52.190Z,1027.52
2019-03-29T01:31:52.172Z,1027.54
2019-03-29T01:32:52.158Z,1027.55
2019-03-29T01:33:52.151Z,1027.56
2019-03-29T01:34:52.136Z,1027.60
2019-03-29T01:35:52.142Z,1027.61
2019-03-29T01:36:52.121Z,1027.52
2019-03-29T01:37:52.103Z,1027.60
2019-03-29T01:38:52.093Z,1027.53
2019-03-29T01:39:52.109Z,1027.48
2019-03-29T01:40:52.073Z,1027.49
2019-03-29T01:41:52.947Z,1027.50
2019-03-29T01:42:52.048Z,1027.44
2019-03-29T01:43:52.035Z,1027.46
2019-03-29T01:44:52.024Z,1027.48
2019-03-29T01:45:52.037Z,1027.44
2019-03-29T01:46:52.011Z,1027.42
2019-03-29T01:47:51.995Z,1027.42
2019-03-29T01:48:52.004Z,1027.44
2019-03-29T01:49:51.972Z,1027.43
2019-03-29T01:50:51.971Z,1027.39
2019-03-29T01:51:51.955Z,1027.43
2019-03-29T01:52:51.939Z,1027.47
2019-03-29T01:53:51.933Z,1027.48
2019-03-29T01:54:51.918Z,1027.44
2019-03-29T01:55:51.900Z,1027.45
2019-03-29T01:56:51.910Z,1027.38
2019-03-29T01:57:51.882Z,1027.41
2019-03-29T01:58:51.873Z,1027.37
2019-03-29T01:59:51.862Z,1027.40
2019-03-29T02:00:51.849Z,1027.39
2019-03-29T02:01:51.877Z,1027.38
2019-03-29T02:02:51.832Z,1027.32
2019-03-29T02:03:51.863Z,1027.34
2019-03-29T02:04:51.802Z,1027.33
2019-03-29T02:05:51.791Z,1027.34
2019-03-29T02:06:51.787Z,1027.36
2019-03-29T02:07:51.777Z,1027.40
2019-03-29T02:08:51.759Z,1027.40
2019-03-29T02:09:51.794Z,1027.38
2019-03-29T02:10:51.736Z,1027.43
2019-03-29T02:11:51.730Z,1027.41
2019-03-29T02:12:51.731Z,1027.33
2019-03-29T02:13:51.975Z,1027.39
2019-03-29T02:14:51.698Z,1027.33
2019-03-29T02:15:51.705Z,1027.36
2019-03-29T02:16:51.676Z,1027.39
2019-03-29T02:17:51.662Z,1027.43
2019-03-29T02:18:51.658Z,1027.40
2019-03-29T02:19:51.664Z,1027.40
2019-03-29T02:20:51.626Z,1027.38
2019-03-29T02:21:51.627Z,1027.38
2019-03-29T02:22:51.655Z,1027.39
2019-03-29T02:23:51.599Z,1027.40
2019-03-29T02:24:51.603Z,1027.37
2019-03-29T02:25:51.591Z,1027.32
2019-03-29T02:26:51.568Z,1027.31
2019-03-29T02:27:52.272Z,1027.30
2019-03-29T02:28:51.543Z,1027.32
2019-03-29T02:29:51.528Z,1027.32
2019-03-29T02:30:51.526Z,1027.31
2019-03-29T02:31:51.512Z,1027.31
2019-03-29T02:32:52.656Z,1027.23
2019-03-29T02:33:51.494Z,1027.28
2019-03-29T02:34:51.473Z,1027.26
2019-03-29T02:35:51.481Z,1027.24
2019-03-29T02:36:51.458Z,1027.26
2019-03-29T02:37:51.449Z,1027.32
2019-03-29T02:38:55.614Z,1027.30
2019-03-29T02:39:51.418Z,1027.26
2019-03-29T02:40:51.532Z,1027.30
2019-03-29T02:41:51.398Z,1027.27
2019-03-29T02:42:51.396Z,1027.27
2019-03-29T02:43:51.404Z,1027.29
2019-03-29T02:44:51.369Z,1027.25
2019-03-29T02:45:51.364Z,1027.28
2019-03-29T02:46:51.400Z,1027.24
2019-03-29T02:47:51.337Z,1027.24
2019-03-29T02:48:51.340Z,1027.25
2019-03-29T02:49:51.333Z,1027.22
2019-03-29T02:50:51.298Z,1027.26
2019-03-29T02:51:51.296Z,1027.36
2019-03-29T02:52:51.283Z,1027.32
2019-03-29T02:53:51.277Z,1027.27
2019-03-29T02:54:51.265Z,1027.32
2019-03-29T02:55:51.249Z,1027.28
2019-03-29T02:56:51.240Z,1027.32
2019-03-29T02:57:51.226Z,1027.36
2019-03-29T02:58:51.216Z,1027.30
2019-03-29T02:59:51.218Z,1027.38
2019-03-29T03:00:51.268Z,1027.32
2019-03-29T03:01:51.178Z,1027.35
2019-03-29T03:02:51.170Z,1027.35
2019-03-29T03:03:51.166Z,1027.36
2019-03-29T03:04:51.144Z,1027.33
2019-03-29T03:05:51.152Z,1027.28
2019-03-29T03:06:51.128Z,1027.28
2019-03-29T03:07:51.111Z,1027.36
2019-03-29T03:08:51.167Z,1027.35
2019-03-29T03:09:51.099Z,1027.34
2019-03-29T03:10:51.126Z,1027.28
2019-03-29T03:11:51.067Z,1027.29
2019-03-29T03:12:51.065Z,1027.33
2019-03-29T03:13:51.049Z,1027.35
2019-03-29T03:14:51.035Z,1027.32
2019-03-29T03:15:51.037Z,1027.30
2019-03-29T03:16:51.022Z,1027.30
2019-03-29T03:17:51.006Z,1027.32
2019-03-29T03:18:50.994Z,1027.26
2019-03-29T03:19:50.980Z,1027.27
2019-03-29T03:20:50.975Z,1027.29
2019-03-29T03:21:50.988Z,1027.29
2019-03-29T03:22:50.950Z,1027.27
2019-03-29T03:23:50.960Z,1027.24
2019-03-29T03:24:50.927Z,1027.25
2019-03-29T03:25:50.918Z,1027.29
2019-03-29T03:26:50.911Z,1027.28
2019-03-29T03:27:50.906Z,1027.33
2019-03-29T03:28:50.883Z,1027.24
2019-03-29T03:29:50.869Z,1027.32
2019-03-29T03:30:50.873Z,1027.33
2019-03-29T03:31:50.900Z,1027.27
2019-03-29T03:32:50.900Z,1027.31
2019-03-29T03:33:50.825Z,1027.28
2019-03-29T03:34:50.838Z,1027.32
2019-03-29T03:35:50.820Z,1027.29
2019-03-29T03:36:50.794Z,1027.31
2019-03-29T03:37:50.802Z,1027.36
2019-03-29T03:38:50.775Z,1027.37
2019-03-29T03:39:50.777Z,1027.35
2019-03-29T03:40:50.753Z,1027.29
2019-03-29T03:41:50.743Z,1027.38
2019-03-29T03:42:50.726Z,1027.36
2019-03-29T03:43:50.734Z,1027.45
2019-03-29T03:44:50.708Z,1027.33
2019-03-29T03:45:50.701Z,1027.37
2019-03-29T03:46:50.688Z,1027.43
2019-03-29T03:47:50.688Z,1027.41
2019-03-29T03:48:50.682Z,1027.29
2019-03-29T03:49:50.667Z,1027.34
2019-03-29T03:50:50.638Z,1027.36
2019-03-29T03:51:50.632Z,1027.41
2019-03-29T03:52:50.624Z,1027.46
2019-03-29T03:53:50.612Z,1027.44
2019-03-29T03:54:50.598Z,1027.39
2019-03-29T03:55:50.603Z,1027.47
2019-03-29T03:56:50.576Z,1027.45
2019-03-29T03:57:50.575Z,1027.44
2019-03-29T03:58:50.553Z,1027.43
2019-03-29T03:59:50.633Z,1027.45
2019-03-29T04:00:50.556Z,1027.38
2019-03-29T04:01:50.594Z,1027.42
2019-03-29T04:02:50.525Z,1027.41
2019-03-29T04:03:50.496Z,1027.49
2019-03-29T04:04:50.491Z,1027.35
2019-03-29T04:05:50.494Z,1027.45
2019-03-29T04:06:50.478Z,1027.40
2019-03-29T04:07:50.457Z,1027.43
2019-03-29T04:08:50.462Z,1027.45
2019-03-29T04:09:50.808Z,1027.42
2019-03-29T04:10:50.418Z,1027.44
2019-03-29T04:11:50.436Z,1027.42
2019-03-29T04:12:50.403Z,1027.42
2019-03-29T04:13:50.397Z,1027.36
2019-03-29T04:14:50.380Z,1027.39
2019-03-29T04:15:50.368Z,1027.35
2019-03-29T04:16:50.399Z,1027.39
2019-03-29T04:17:50.350Z,1027.39
2019-03-29T04:18:50.343Z,1027.41
2019-03-29T04:19:50.322Z,1027.48
2019-03-29T04:20:50.332Z,1027.45
2019-03-29T04:21:50.300Z,1027.48
2019-03-29T04:22:50.294Z,1027.41
2019-03-29T04:23:50.298Z,1027.40
2019-03-29T04:24:50.269Z,1027.45
2019-03-29T04:25:50.260Z,1027.45
2019-03-29T04:26:50.243Z,1027.46
2019-03-29T04:27:50.238Z,1027.46
2019-03-29T04:29:03.443Z,1027.45
2019-03-29T04:29:51.221Z,1027.45
2019-03-29T04:30:50.210Z,1027.38
2019-03-29T04:31:50.191Z,1027.43
2019-03-29T04:32:50.178Z,1027.40
2019-03-29T04:33:50.172Z,1027.45
2019-03-29T04:34:50.176Z,1027.38
2019-03-29T04:35:50.148Z,1027.38
2019-03-29T04:36:50.140Z,1027.41
2019-03-29T04:37:50.138Z,1027.40
2019-03-29T04:38:50.121Z,1027.43
2019-03-29T04:40:06.448Z,1027.41
2019-03-29T04:40:51.090Z,1027.43
2019-03-29T04:41:50.086Z,1027.46
2019-03-29T04:42:50.131Z,1027.45
2019-03-29T04:43:50.067Z,1027.43
2019-03-29T04:44:50.051Z,1027.46
2019-03-29T04:45:50.087Z,1027.45
2019-03-29T04:46:50.028Z,1027.42
2019-03-29T04:47:50.015Z,1027.40
2019-03-29T04:48:50.004Z,1027.40
2019-03-29T04:49:50.000Z,1027.47
2019-03-29T04:50:49.988Z,1027.45
2019-03-29T04:51:49.988Z,1027.39
2019-03-29T04:52:49.995Z,1027.39
2019-03-29T04:53:49.961Z,1027.44
2019-03-29T04:54:49.937Z,1027.40
2019-03-29T04:55:49.930Z,1027.44
2019-03-29T04:56:49.941Z,1027.44
2019-03-29T04:57:49.907Z,1027.46
2019-03-29T04:58:49.892Z,1027.47
2019-03-29T04:59:49.881Z,1027.42
2019-03-29T05:00:49.877Z,1027.45
2019-03-29T05:01:49.863Z,1027.43
2019-03-29T05:02:49.868Z,1027.45
2019-03-29T05:03:49.855Z,1027.45
2019-03-29T05:04:49.852Z,1027.47
2019-03-29T05:05:49.816Z,1027.47
2019-03-29T05:06:49.864Z,1027.46
2019-03-29T05:07:49.794Z,1027.41
2019-03-29T05:08:49.790Z,1027.48
2019-03-29T05:09:49.779Z,1027.47
2019-03-29T05:10:49.790Z,1027.46
2019-03-29T05:11:49.762Z,1027.46
2019-03-29T05:12:49.754Z,1027.48
2019-03-29T05:13:49.727Z,1027.44
2019-03-29T05:14:49.721Z,1027.48
2019-03-29T05:15:49.714Z,1027.50
2019-03-29T05:16:49.711Z,1027.46
2019-03-29T05:17:49.700Z,1027.49
2019-03-29T05:18:49.677Z,1027.42
2019-03-29T05:19:49.664Z,1027.44
2019-03-29T05:20:49.657Z,1027.47
2019-03-29T05:21:49.691Z,1027.41
2019-03-29T05:22:49.631Z,1027.41
2019-03-29T05:23:49.623Z,1027.40
2019-03-29T05:24:49.611Z,1027.42
2019-03-29T05:25:49.597Z,1027.41
2019-03-29T05:26:49.598Z,1027.37
2019-03-29T05:27:49.586Z,1027.40
2019-03-29T05:28:49.568Z,1027.41
2019-03-29T05:29:49.558Z,1027.45
2019-03-29T05:30:49.543Z,1027.43
2019-03-29T05:31:49.541Z,1027.41
2019-03-29T05:32:49.532Z,1027.44
2019-03-29T05:33:49.514Z,1027.43
2019-03-29T05:34:49.522Z,1027.37
2019-03-29T05:35:49.513Z,1027.47
2019-03-29T05:36:49.480Z,1027.44
2019-03-29T05:37:49.494Z,1027.45
2019-03-29T05:38:49.473Z,1027.47
2019-03-29T05:39:49.452Z,1027.47
2019-03-29T05:40:49.437Z,1027.41
2019-03-29T05:41:49.427Z,1027.46
2019-03-29T05:42:49.447Z,1027.45
2019-03-29T05:43:49.413Z,1027.47
2019-03-29T05:44:49.405Z,1027.41
2019-03-29T05:45:49.382Z,1027.46
2019-03-29T05:46:49.373Z,1027.46
2019-03-29T05:47:49.364Z,1027.44
2019-03-29T05:48:49.386Z,1027.45
2019-03-29T05:49:49.342Z,1027.38
2019-03-29T05:50:49.328Z,1027.43
2019-03-29T05:51:49.316Z,1027.38
2019-03-29T05:52:49.311Z,1027.43
2019-03-29T05:53:49.300Z,1027.47
2019-03-29T05:54:49.302Z,1027.48
2019-03-29T05:55:49.312Z,1027.43
2019-03-29T05:56:49.268Z,1027.46
2019-03-29T05:57:49.255Z,1027.45
2019-03-29T05:58:49.247Z,1027.44
2019-03-29T05:59:49.256Z,1027.41
2019-03-29T06:00:49.224Z,1027.46
2019-03-29T06:01:49.215Z,1027.49
2019-03-29T06:02:49.210Z,1027.51
2019-03-29T06:03:49.199Z,1027.42
2019-03-29T06:04:49.201Z,1027.52
2019-03-29T06:05:49.174Z,1027.47
2019-03-29T06:06:49.160Z,1027.45
2019-03-29T06:07:49.152Z,1027.39
2019-03-29T06:08:49.145Z,1027.42
2019-03-29T06:09:49.127Z,1027.41
2019-03-29T06:10:49.781Z,1027.44
2019-03-29T06:11:49.112Z,1027.38
2019-03-29T06:12:49.094Z,1027.44
2019-03-29T06:13:49.081Z,1027.40
2019-03-29T06:14:49.076Z,1027.40
2019-03-29T06:15:49.065Z,1027.37
2019-03-29T06:16:49.074Z,1027.38
2019-03-29T06:17:49.351Z,1027.39
2019-03-29T06:18:49.034Z,1027.41
2019-03-29T06:19:49.028Z,1027.40
2019-03-29T06:20:49.008Z,1027.32
2019-03-29T06:21:49.004Z,1027.35
2019-03-29T06:22:48.989Z,1027.34
2019-03-29T06:23:48.975Z,1027.33
2019-03-29T06:24:48.961Z,1027.38
2019-03-29T06:25:48.955Z,1027.37
2019-03-29T06:26:48.981Z,1027.34
2019-03-29T06:27:48.931Z,1027.31
2019-03-29T06:28:48.920Z,1027.35
2019-03-29T06:29:48.908Z,1027.38
2019-03-29T06:30:48.899Z,1027.33
2019-03-29T06:31:48.887Z,1027.28
2019-03-29T06:32:48.906Z,1027.37
2019-03-29T06:33:48.885Z,1027.30
2019-03-29T06:34:48.932Z,1027.26
2019-03-29T06:35:48.842Z,1027.26
2019-03-29T06:36:48.830Z,1027.32
2019-03-29T06:37:48.819Z,1027.28
2019-03-29T06:38:48.814Z,1027.30
2019-03-29T06:39:48.791Z,1027.29
2019-03-29T06:41:01.723Z,1027.31
2019-03-29T06:41:49.771Z,1027.27
2019-03-29T06:42:48.754Z,1027.29
2019-03-29T06:43:48.760Z,1027.28
2019-03-29T06:44:48.756Z,1027.29
2019-03-29T06:45:48.728Z,1027.34
2019-03-29T06:46:48.717Z,1027.33
2019-03-29T06:47:48.701Z,1027.28
2019-03-29T06:48:48.705Z,1027.31
2019-03-29T06:49:48.688Z,1027.34
2019-03-29T06:50:48.792Z,1027.33
2019-03-29T06:51:48.661Z,1027.30
2019-03-29T06:52:48.661Z,1027.35
2019-03-29T06:53:48.670Z,1027.40
2019-03-29T06:54:48.623Z,1027.34
2019-03-29T06:55:48.615Z,1027.35
2019-03-29T06:56:48.602Z,1027.31
2019-03-29T06:57:48.587Z,1027.36
2019-03-29T06:58:48.580Z,1027.33
2019-03-29T06:59:48.583Z,1027.36
2019-03-29T07:00:48.579Z,1027.40
2019-03-29T07:01:48.548Z,1027.34
2019-03-29T07:02:48.534Z,1027.35
2019-03-29T07:03:48.528Z,1027.39
2019-03-29T07:04:48.518Z,1027.35
2019-03-29T07:05:48.503Z,1027.32
2019-03-29T07:06:48.503Z,1027.37
2019-03-29T07:07:48.481Z,1027.34
2019-03-29T07:08:48.469Z,1027.33
2019-03-29T07:09:48.491Z,1027.32
2019-03-29T07:10:48.442Z,1027.33
2019-03-29T07:11:48.437Z,1027.43
2019-03-29T07:12:48.421Z,1027.38
2019-03-29T07:13:57.542Z,1027.36
2019-03-29T07:14:49.411Z,1027.41
2019-03-29T07:15:48.399Z,1027.36
2019-03-29T07:16:48.383Z,1027.32
2019-03-29T07:17:48.372Z,1027.35
2019-03-29T07:18:48.360Z,1027.33
2019-03-29T07:19:48.365Z,1027.40
2019-03-29T07:20:48.338Z,1027.40
2019-03-29T07:21:48.331Z,1027.43
2019-03-29T07:22:48.317Z,1027.39
2019-03-29T07:23:48.312Z,1027.43
2019-03-29T07:24:48.305Z,1027.44
2019-03-29T07:25:48.280Z,1027.42
2019-03-29T07:26:48.269Z,1027.43
2019-03-29T07:27:52.245Z,1027.40
2019-03-29T07:28:48.259Z,1027.36
2019-03-29T07:29:48.249Z,1027.37
2019-03-29T07:30:48.223Z,1027.33
2019-03-29T07:31:48.221Z,1027.37
2019-03-29T07:32:48.209Z,1027.44
2019-03-29T07:33:48.247Z,1027.41
2019-03-29T07:34:49.263Z,1027.43
2019-03-29T07:35:48.177Z,1027.43
2019-03-29T07:36:48.170Z,1027.43
2019-03-29T07:37:48.156Z,1027.43
2019-03-29T07:38:48.139Z,1027.46
2019-03-29T07:39:48.132Z,1027.43
2019-03-29T07:40:48.130Z,1027.50
2019-03-29T07:41:48.109Z,1027.42
2019-03-29T07:42:48.110Z,1027.44
2019-03-29T07:43:48.096Z,1027.47
2019-03-29T07:44:48.077Z,1027.39
2019-03-29T07:45:48.073Z,1027.43
2019-03-29T07:46:48.094Z,1027.42
2019-03-29T07:47:48.043Z,1027.43
2019-03-29T07:48:48.030Z,1027.44
2019-03-29T07:49:48.021Z,1027.52
2019-03-29T07:50:48.017Z,1027.52
2019-03-29T07:51:48.003Z,1027.53
2019-03-29T07:52:47.999Z,1027.48
2019-03-29T07:53:47.976Z,1027.53
2019-03-29T07:54:47.966Z,1027.41
2019-03-29T07:55:47.950Z,1027.46
2019-03-29T07:56:47.946Z,1027.45
2019-03-29T07:57:47.950Z,1027.44
2019-03-29T07:58:47.967Z,1027.40
2019-03-29T07:59:47.907Z,1027.42
2019-03-29T08:00:47.902Z,1027.43
2019-03-29T08:01:47.889Z,1027.48
2019-03-29T08:02:47.875Z,1027.42
2019-03-29T08:03:51.093Z,1027.46
2019-03-29T08:04:47.851Z,1027.38
2019-03-29T08:05:47.847Z,1027.35
2019-03-29T08:06:47.840Z,1027.30
2019-03-29T08:07:47.824Z,1027.31
2019-03-29T08:08:47.835Z,1027.30
2019-03-29T08:09:47.815Z,1027.34
2019-03-29T08:10:47.793Z,1027.26
2019-03-29T08:11:47.783Z,1027.28
2019-03-29T08:12:49.168Z,1027.30
2019-03-29T08:13:47.783Z,1027.33
2019-03-29T08:14:47.774Z,1027.30
2019-03-29T08:15:47.731Z,1027.32
2019-03-29T08:16:47.727Z,1027.21
2019-03-29T08:17:47.714Z,1027.25
2019-03-29T08:18:47.715Z,1027.34
2019-03-29T08:19:47.686Z,1027.36
2019-03-29T08:20:47.691Z,1027.36
2019-03-29T08:21:47.684Z,1027.28
2019-03-29T08:22:47.661Z,1027.29
2019-03-29T08:23:47.650Z,1027.27
2019-03-29T08:24:47.642Z,1027.29
2019-03-29T08:25:47.630Z,1027.33
2019-03-29T08:26:47.621Z,1027.30
2019-03-29T08:27:47.642Z,1027.33
2019-03-29T08:28:47.591Z,1027.30
2019-03-29T08:29:47.575Z,1027.33
2019-03-29T08:30:47.578Z,1027.30
2019-03-29T08:31:47.553Z,1027.29
2019-03-29T08:32:47.549Z,1027.30
2019-03-29T08:33:47.537Z,1027.33
2019-03-29T08:34:47.529Z,1027.28
2019-03-29T08:35:47.526Z,1027.34
2019-03-29T08:36:47.503Z,1027.33
2019-03-29T08:37:47.494Z,1027.35
2019-03-29T08:38:47.487Z,1027.37
2019-03-29T08:39:47.478Z,1027.31
2019-03-29T08:40:47.480Z,1027.36
2019-03-29T08:41:59.435Z,1027.37
2019-03-29T08:42:48.438Z,1027.36
2019-03-29T08:43:47.426Z,1027.35
2019-03-29T08:44:47.444Z,1027.41
2019-03-29T08:45:47.420Z,1027.39
2019-03-29T08:46:47.397Z,1027.45
2019-03-29T08:47:47.377Z,1027.40
2019-03-29T08:48:47.371Z,1027.35
2019-03-29T08:49:47.365Z,1027.36
2019-03-29T08:50:47.348Z,1027.38
2019-03-29T08:51:47.353Z,1027.39
2019-03-29T08:52:47.321Z,1027.42
2019-03-29T08:53:47.310Z,1027.41
2019-03-29T08:54:48.392Z,1027.38
2019-03-29T08:55:47.293Z,1027.45
2019-03-29T08:56:47.289Z,1027.39
2019-03-29T08:57:47.290Z,1027.37
2019-03-29T08:58:47.262Z,1027.39
2019-03-29T08:59:47.244Z,1027.41
2019-03-29T09:00:47.241Z,1027.37
2019-03-29T09:01:47.232Z,1027.35
2019-03-29T09:02:47.335Z,1027.37
2019-03-29T09:04:02.743Z,1027.36
2019-03-29T09:04:48.195Z,1027.38
2019-03-29T09:05:47.185Z,1027.28
2019-03-29T09:06:53.236Z,1027.29
2019-03-29T09:07:48.181Z,1027.31
2019-03-29T09:08:47.163Z,1027.29
2019-03-29T09:09:47.139Z,1027.31
2019-03-29T09:10:47.136Z,1027.31
2019-03-29T09:11:47.117Z,1027.30
2019-03-29T09:12:47.106Z,1027.30
2019-03-29T09:13:47.105Z,1027.35
2019-03-29T09:14:47.087Z,1027.27
2019-03-29T09:15:47.070Z,1027.28
2019-03-29T09:16:47.082Z,1027.34
2019-03-29T09:17:47.047Z,1027.28
2019-03-29T09:18:47.054Z,1027.26
2019-03-29T09:19:47.029Z,1027.23
2019-03-29T09:20:47.046Z,1027.24
2019-03-29T09:21:47.057Z,1027.25
2019-03-29T09:22:46.992Z,1027.25
2019-03-29T09:23:46.990Z,1027.27
2019-03-29T09:24:46.975Z,1027.26
2019-03-29T09:25:46.972Z,1027.25
2019-03-29T09:26:46.947Z,1027.29
2019-03-29T09:27:46.950Z,1027.23
2019-03-29T09:28:46.929Z,1027.23
2019-03-29T09:29:46.914Z,1027.25
2019-03-29T09:30:46.919Z,1027.26
2019-03-29T09:31:46.932Z,1027.31
2019-03-29T09:32:46.887Z,1027.19
2019-03-29T09:33:46.951Z,1027.20
2019-03-29T09:34:46.864Z,1027.24
2019-03-29T09:35:46.849Z,1027.27
2019-03-29T09:36:46.842Z,1027.25
2019-03-29T09:37:46.847Z,1027.28
2019-03-29T09:38:46.825Z,1027.25
2019-03-29T09:39:46.811Z,1027.29
2019-03-29T09:40:57.742Z,1027.24
2019-03-29T09:41:47.785Z,1027.24
2019-03-29T09:42:46.853Z,1027.27
2019-03-29T09:43:46.759Z,1027.23
2019-03-29T09:44:46.753Z,1027.29
2019-03-29T09:45:46.740Z,1027.24
2019-03-29T09:46:46.733Z,1027.23
2019-03-29T09:47:46.731Z,1027.24
2019-03-29T09:48:46.757Z,1027.27
2019-03-29T09:49:46.705Z,1027.24
2019-03-29T09:50:50.425Z,1027.23
2019-03-29T09:51:46.677Z,1027.20
2019-03-29T09:52:46.668Z,1027.19
2019-03-29T09:53:46.652Z,1027.20
2019-03-29T09:54:46.677Z,1027.21
2019-03-29T09:55:46.633Z,1027.19
2019-03-29T09:56:48.352Z,1027.16
2019-03-29T09:57:46.610Z,1027.10
2019-03-29T09:58:46.601Z,1027.18
2019-03-29T09:59:46.594Z,1027.05
2019-03-29T10:00:46.608Z,1027.13
2019-03-29T10:01:46.568Z,1027.10
2019-03-29T10:02:46.570Z,1027.15
2019-03-29T10:03:46.539Z,1027.16
2019-03-29T10:04:46.533Z,1027.13
2019-03-29T10:05:46.521Z,1027.10
2019-03-29T10:06:46.518Z,1027.13
2019-03-29T10:07:46.494Z,1027.08
2019-03-29T10:08:46.483Z,1027.10
2019-03-29T10:09:46.491Z,1027.13
2019-03-29T10:10:46.475Z,1027.06
2019-03-29T10:11:46.494Z,1027.06
2019-03-29T10:12:46.439Z,1027.06
2019-03-29T10:13:46.443Z,1027.06
2019-03-29T10:14:46.423Z,1027.05
2019-03-29T10:15:46.424Z,1027.05
2019-03-29T10:16:46.421Z,1027.10
2019-03-29T10:17:46.387Z,1027.13
2019-03-29T10:18:46.383Z,1027.07
2019-03-29T10:19:49.624Z,1027.15
2019-03-29T10:20:46.354Z,1027.08
2019-03-29T10:21:46.345Z,1027.07
2019-03-29T10:22:46.360Z,1027.10
2019-03-29T10:23:46.352Z,1027.09
2019-03-29T10:24:46.310Z,1027.07
2019-03-29T10:25:46.305Z,1027.07
2019-03-29T10:26:46.309Z,1027.05
2019-03-29T10:27:46.284Z,1027.06
2019-03-29T10:28:46.274Z,1027.06
2019-03-29T10:29:46.257Z,1027.05
2019-03-29T10:30:47.097Z,1027.06
2019-03-29T10:31:46.246Z,1027.06
2019-03-29T10:32:46.256Z,1027.07
2019-03-29T10:33:48.891Z,1027.03
2019-03-29T10:34:46.207Z,1027.00
2019-03-29T10:35:52.287Z,1026.98
2019-03-29T10:36:47.223Z,1026.98
2019-03-29T10:37:46.178Z,1026.92
2019-03-29T10:38:46.167Z,1026.94
2019-03-29T10:39:46.158Z,1026.88
2019-03-29T10:40:46.146Z,1026.85
2019-03-29T10:41:46.136Z,1026.84
2019-03-29T10:42:57.090Z,1026.87
2019-03-29T10:43:47.111Z,1026.85
2019-03-29T10:44:49.214Z,1026.82
2019-03-29T10:45:46.093Z,1026.82
2019-03-29T10:46:46.084Z,1026.76
2019-03-29T10:47:46.075Z,1026.71
2019-03-29T10:48:46.073Z,1026.70
2019-03-29T10:49:46.053Z,1026.72
2019-03-29T10:50:46.070Z,1026.70
2019-03-29T10:51:46.028Z,1026.68
2019-03-29T10:52:46.073Z,1026.67
2019-03-29T10:53:46.031Z,1026.72
2019-03-29T10:54:45.994Z,1026.73
2019-03-29T10:55:45.982Z,1026.72
2019-03-29T10:56:45.967Z,1026.75
2019-03-29T10:57:45.956Z,1026.68
2019-03-29T10:58:45.959Z,1026.62
2019-03-29T10:59:45.950Z,1026.64
2019-03-29T11:00:45.928Z,1026.58
2019-03-29T11:01:45.916Z,1026.65
2019-03-29T11:02:45.902Z,1026.58
2019-03-29T11:03:45.891Z,1026.53
2019-03-29T11:04:45.880Z,1026.55
2019-03-29T11:05:45.881Z,1026.56
2019-03-29T11:06:45.854Z,1026.54
2019-03-29T11:07:45.848Z,1026.52
2019-03-29T11:08:45.858Z,1026.48
2019-03-29T11:09:45.824Z,1026.54
2019-03-29T11:10:45.826Z,1026.51
2019-03-29T11:11:45.802Z,1026.46
2019-03-29T11:12:45.793Z,1026.52
2019-03-29T11:13:45.808Z,1026.43
2019-03-29T11:14:45.765Z,1026.50
2019-03-29T11:15:45.757Z,1026.45
2019-03-29T11:16:45.808Z,1026.43
2019-03-29T11:17:45.737Z,1026.46
2019-03-29T11:18:46.023Z,1026.47
2019-03-29T11:19:45.717Z,1026.33
2019-03-29T11:20:45.710Z,1026.43
2019-03-29T11:21:45.727Z,1026.36
2019-03-29T11:22:45.681Z,1026.39
2019-03-29T11:23:45.667Z,1026.33
2019-03-29T11:24:45.660Z,1026.32
2019-03-29T11:25:48.371Z,1026.30
2019-03-29T11:26:45.632Z,1026.28
2019-03-29T11:27:45.626Z,1026.21
2019-03-29T11:28:45.608Z,1026.29
2019-03-29T11:29:45.601Z,1026.16
2019-03-29T11:30:45.589Z,1026.13
2019-03-29T11:31:45.620Z,1026.13
2019-03-29T11:32:45.682Z,1026.16
2019-03-29T11:33:45.565Z,1026.18
2019-03-29T11:34:45.546Z,1026.15
2019-03-29T11:35:45.543Z,1026.10
2019-03-29T11:36:45.519Z,1026.12
2019-03-29T11:37:45.528Z,1026.09
2019-03-29T11:38:45.503Z,1026.07
2019-03-29T11:39:45.492Z,1026.14
2019-03-29T11:40:45.518Z,1026.09
2019-03-29T11:41:45.472Z,1026.04
2019-03-29T11:42:45.454Z,1026.01
2019-03-29T11:43:45.442Z,1026.00
2019-03-29T11:44:45.436Z,1025.94
2019-03-29T11:45:45.425Z,1026.04
2019-03-29T11:46:45.421Z,1026.01
2019-03-29T11:47:45.403Z,1026.02
2019-03-29T11:48:45.387Z,1025.98
2019-03-29T11:49:45.386Z,1025.96
2019-03-29T11:50:45.367Z,1026.01
2019-03-29T11:51:45.369Z,1025.97
2019-03-29T11:52:45.346Z,1025.93
2019-03-29T11:53:45.482Z,1025.88
2019-03-29T11:54:45.321Z,1025.90
2019-03-29T11:55:45.324Z,1025.91
2019-03-29T11:56:47.674Z,1025.93
2019-03-29T11:57:45.302Z,1025.92
2019-03-29T11:58:45.278Z,1025.92
2019-03-29T11:59:45.262Z,1025.84
2019-03-29T12:00:45.256Z,1025.90
2019-03-29T12:01:45.278Z,1025.88
2019-03-29T12:02:45.242Z,1025.89
2019-03-29T12:03:45.262Z,1025.83
2019-03-29T12:04:45.278Z,1025.88
2019-03-29T12:05:45.211Z,1025.85